createdAt,value
2023-04-16T00:01:50.524Z,33.97
2023-04-16T00:04:16.568Z,27.38
2023-04-16T00:06:42.385Z,29.00
2023-04-16T00:09:08.290Z,27.25
2023-04-16T00:11:34.255Z,25.10
2023-04-16T00:14:00.103Z,30.95
2023-04-16T00:16:25.894Z,24.40
2023-04-16T00:18:51.688Z,27.25
2023-04-16T00:21:17.425Z,29.63
2023-04-16T00:23:43.206Z,26.58
2023-04-16T00:26:09.006Z,28.27
2023-04-16T00:28:35.033Z,27.30
2023-04-16T00:31:00.833Z,27.45
2023-04-16T00:33:26.908Z,24.00
2023-04-16T00:35:52.701Z,23.15
2023-04-16T00:38:18.420Z,29.55
2023-04-16T00:40:44.194Z,26.77
2023-04-16T00:43:09.978Z,28.02
2023-04-16T00:45:35.793Z,27.58
2023-04-16T00:48:01.731Z,26.75
2023-04-16T00:50:27.655Z,26.75
2023-04-16T00:52:53.405Z,27.13
2023-04-16T00:55:19.445Z,23.42
2023-04-16T00:57:45.504Z,30.90
2023-04-16T01:00:11.534Z,26.75
2023-04-16T01:02:37.565Z,27.83
2023-04-16T01:05:03.862Z,27.45
2023-04-16T01:07:29.592Z,30.10
2023-04-16T01:09:55.776Z,24.15
2023-04-16T01:12:21.654Z,24.73
2023-04-16T01:14:47.673Z,29.85
2023-04-16T01:17:13.610Z,27.63
2023-04-16T01:19:39.514Z,26.30
2023-04-16T01:22:05.436Z,26.27
2023-04-16T01:24:31.720Z,23.55
2023-04-16T01:26:58.506Z,29.02
2023-04-16T01:29:24.326Z,26.77
2023-04-16T01:31:50.337Z,24.80
2023-04-16T01:34:16.147Z,31.33
2023-04-16T01:36:41.887Z,28.50
2023-04-16T01:39:11.019Z,25.65
2023-04-16T01:41:36.904Z,28.33
2023-04-16T01:44:02.676Z,25.98
2023-04-16T01:46:30.332Z,30.02
2023-04-16T01:48:56.714Z,30.40
2023-04-16T01:51:23.400Z,26.88
2023-04-16T01:53:49.580Z,25.08
2023-04-16T01:56:15.438Z,28.95
2023-04-16T01:58:42.216Z,29.50
2023-04-16T02:01:08.394Z,24.40
2023-04-16T02:03:34.678Z,28.60
2023-04-16T02:06:03.564Z,30.33
2023-04-16T02:08:29.317Z,33.88
2023-04-16T02:10:56.398Z,28.63
2023-04-16T02:13:22.732Z,24.75
2023-04-16T02:15:49.246Z,27.08
2023-04-16T02:18:15.330Z,26.25
2023-04-16T02:20:45.440Z,27.77
2023-04-16T02:23:11.307Z,29.42
2023-04-16T02:25:40.662Z,23.55
2023-04-16T02:28:08.074Z,29.42
2023-04-16T02:30:34.591Z,24.67
2023-04-16T02:33:02.924Z,24.25
2023-04-16T02:35:28.758Z,29.15
2023-04-16T02:37:54.531Z,34.40
2023-04-16T02:40:20.362Z,25.58
2023-04-16T02:42:46.589Z,28.88
2023-04-16T02:45:12.450Z,37.08
2023-04-16T02:47:38.227Z,30.80
2023-04-16T02:50:04.102Z,28.85
2023-04-16T02:52:31.629Z,31.42
2023-04-16T02:54:57.359Z,29.92
2023-04-16T02:57:23.068Z,31.88
2023-04-16T02:59:48.787Z,29.38
2023-04-16T03:02:15.550Z,30.48
2023-04-16T03:04:41.550Z,30.63
2023-04-16T03:07:08.493Z,29.77
2023-04-16T03:09:34.709Z,27.85
2023-04-16T03:12:01.685Z,36.47
2023-04-16T03:14:27.521Z,31.58
2023-04-16T03:16:53.240Z,34.47
2023-04-16T03:19:18.967Z,30.85
2023-04-16T03:21:44.736Z,31.52
2023-04-16T03:24:10.822Z,30.73
2023-04-16T03:26:36.623Z,30.77
2023-04-16T03:29:02.563Z,31.75
2023-04-16T03:31:28.387Z,32.45
2023-04-16T03:33:54.145Z,38.58
2023-04-16T03:36:20.202Z,32.08
2023-04-16T03:38:45.941Z,40.05
2023-04-16T03:41:11.656Z,33.63
2023-04-16T03:43:37.394Z,37.33
2023-04-16T03:46:03.140Z,29.20
2023-04-16T03:48:28.955Z,39.10
2023-04-16T03:50:54.844Z,36.17
2023-04-16T03:53:20.618Z,36.55
2023-04-16T03:55:49.272Z,35.60
2023-04-16T03:58:14.987Z,35.55
2023-04-16T04:00:41.153Z,37.47
2023-04-16T04:03:07.092Z,37.55
2023-04-16T04:05:35.923Z,33.53
2023-04-16T04:08:01.654Z,33.58
2023-04-16T04:10:27.356Z,38.63
2023-04-16T04:12:53.106Z,29.52
2023-04-16T04:15:18.874Z,34.10
2023-04-16T04:17:44.712Z,30.13
2023-04-16T04:20:10.845Z,39.08
2023-04-16T04:22:36.564Z,36.30
2023-04-16T04:25:02.300Z,28.38
2023-04-16T04:27:28.037Z,35.47
2023-04-16T04:29:53.779Z,34.72
2023-04-16T04:32:19.616Z,29.92
2023-04-16T04:34:45.382Z,33.92
2023-04-16T04:37:11.152Z,32.35
2023-04-16T04:39:36.858Z,32.50
2023-04-16T04:42:02.669Z,30.70
2023-04-16T04:44:28.393Z,33.63
2023-04-16T04:46:54.236Z,31.65
2023-04-16T04:49:19.989Z,37.42
2023-04-16T04:51:45.848Z,37.20
2023-04-16T04:54:11.561Z,34.47
2023-04-16T04:56:37.477Z,34.88
2023-04-16T04:59:03.376Z,38.33
2023-04-16T05:01:32.702Z,33.88
2023-04-16T05:03:58.593Z,37.33
2023-04-16T05:06:24.581Z,36.83
2023-04-16T05:08:51.175Z,32.50
2023-04-16T05:11:17.229Z,35.45
2023-04-16T05:13:43.375Z,40.53
2023-04-16T05:16:09.557Z,37.83
2023-04-16T05:18:35.689Z,42.75
2023-04-16T05:21:01.631Z,36.45
2023-04-16T05:23:27.732Z,38.28
2023-04-16T05:25:53.990Z,41.35
2023-04-16T05:28:19.879Z,34.60
2023-04-16T05:31:11.307Z,34.30
2023-04-16T05:36:03.011Z,33.28
2023-04-16T05:38:28.983Z,35.92
2023-04-16T05:40:55.841Z,32.15
2023-04-16T05:43:21.773Z,33.53
2023-04-16T05:45:47.851Z,39.40
2023-04-16T05:48:13.985Z,32.35
2023-04-16T05:50:40.971Z,29.85
2023-04-16T05:53:07.899Z,31.33
2023-04-16T05:55:35.458Z,29.73
2023-04-16T05:58:04.452Z,33.17
2023-04-16T06:00:40.234Z,26.38
2023-04-16T06:03:09.718Z,29.70
2023-04-16T06:08:19.288Z,30.67
2023-04-16T06:10:46.823Z,26.02
2023-04-16T06:13:13.115Z,30.17
2023-04-16T06:15:39.028Z,29.33
2023-04-16T06:18:05.309Z,32.90
2023-04-16T06:20:31.939Z,31.40
2023-04-16T06:22:58.092Z,29.50
2023-04-16T06:25:25.005Z,29.00
2023-04-16T06:27:51.351Z,29.23
2023-04-16T06:30:22.791Z,24.30
2023-04-16T06:32:48.901Z,30.92
2023-04-16T06:35:15.865Z,25.65
2023-04-16T06:37:41.974Z,32.97
2023-04-16T06:40:08.715Z,26.95
2023-04-16T06:42:39.894Z,31.17
2023-04-16T06:45:06.095Z,30.05
2023-04-16T06:47:32.078Z,37.17
2023-04-16T06:50:00.521Z,30.02
2023-04-16T06:52:26.482Z,27.15
2023-04-16T06:54:52.411Z,32.95
2023-04-16T06:57:18.582Z,38.05
2023-04-16T06:59:44.827Z,25.40
2023-04-16T07:02:48.037Z,27.88
2023-04-16T07:05:14.271Z,28.85
2023-04-16T07:07:42.178Z,26.40
2023-04-16T07:10:11.247Z,27.80
2023-04-16T07:12:37.615Z,26.65
2023-04-16T07:15:06.008Z,28.15
2023-04-16T07:17:34.155Z,31.60
2023-04-16T07:20:00.690Z,32.63
2023-04-16T07:22:29.831Z,27.92
2023-04-16T07:24:56.920Z,21.48
2023-04-16T07:27:24.356Z,33.00
2023-04-16T07:29:52.105Z,23.77
2023-04-16T07:32:19.572Z,32.72
2023-04-16T07:34:47.268Z,25.10
2023-04-16T07:37:17.083Z,27.63
2023-04-16T07:39:43.870Z,27.65
2023-04-16T07:42:10.937Z,25.73
2023-04-16T07:44:38.046Z,24.30
2023-04-16T07:47:05.583Z,26.02
2023-04-16T07:49:31.991Z,24.30
2023-04-16T07:52:00.156Z,23.50
2023-04-16T07:54:29.007Z,23.65
2023-04-16T07:56:55.923Z,23.98
2023-04-16T07:59:24.008Z,22.80
2023-04-16T08:01:52.680Z,24.42
2023-04-16T08:04:24.336Z,27.67
2023-04-16T08:06:51.286Z,25.20
2023-04-16T08:09:34.109Z,27.90
2023-04-16T08:12:00.515Z,28.88
2023-04-16T08:14:27.093Z,26.98
2023-04-16T08:16:58.207Z,27.30
2023-04-16T08:22:05.570Z,25.73
2023-04-16T08:24:39.474Z,27.02
2023-04-16T08:27:17.865Z,26.60
2023-04-16T08:29:47.373Z,25.98
2023-04-16T08:32:37.174Z,22.02
2023-04-16T08:35:03.873Z,29.92
2023-04-16T08:37:30.128Z,19.85
2023-04-16T08:39:57.478Z,20.30
2023-04-16T08:42:48.996Z,20.25
2023-04-16T08:45:17.093Z,18.48
2023-04-16T08:47:51.920Z,19.42
2023-04-16T09:04:52.320Z,20.65
2023-04-16T09:07:20.782Z,18.15
2023-04-16T09:09:49.492Z,18.92
2023-04-16T09:14:57.868Z,15.85
2023-04-16T09:23:21.555Z,15.23
2023-04-16T09:25:48.793Z,16.20
2023-04-16T09:28:48.127Z,18.50
2023-04-16T09:31:18.225Z,19.88
2023-04-16T09:34:03.998Z,15.85
2023-04-16T09:36:37.473Z,16.20
2023-04-16T09:39:08.135Z,17.52
2023-04-16T09:41:36.759Z,21.25
2023-04-16T09:44:06.760Z,16.33
2023-04-16T09:46:43.593Z,20.70
2023-04-16T09:49:13.778Z,19.35
2023-04-16T09:51:46.511Z,19.75
2023-04-16T09:59:47.608Z,22.40
2023-04-16T10:02:16.695Z,27.00
2023-04-16T10:07:36.777Z,19.73
2023-04-16T10:10:06.882Z,20.42
2023-04-16T10:12:37.506Z,25.85
2023-04-16T10:15:04.498Z,19.25
2023-04-16T10:17:33.005Z,20.10
2023-04-16T10:20:07.233Z,19.10
2023-04-16T10:22:34.492Z,16.25
2023-04-16T10:25:03.051Z,20.30
2023-04-16T10:27:29.526Z,24.13
2023-04-16T10:30:08.734Z,19.95
2023-04-16T10:32:43.817Z,15.48
2023-04-16T10:35:17.469Z,16.95
2023-04-16T10:40:29.049Z,16.50
2023-04-16T10:43:12.525Z,18.67
2023-04-16T10:45:38.930Z,17.52
2023-04-16T10:48:16.967Z,21.25
2023-04-16T10:50:43.923Z,20.42
2023-04-16T10:53:23.945Z,17.50
2023-04-16T10:55:57.099Z,21.67
2023-04-16T10:58:26.701Z,21.05
2023-04-16T11:04:23.328Z,16.55
2023-04-16T11:07:09.359Z,20.58
2023-04-16T11:09:54.932Z,17.55
2023-04-16T11:12:46.530Z,17.85
2023-04-16T11:15:16.319Z,17.17
2023-04-16T12:24:35.385Z,18.30
2023-04-16T12:27:03.425Z,12.18
2023-04-16T12:29:29.456Z,15.23
2023-04-16T12:31:55.797Z,12.73
2023-04-16T12:34:46.587Z,15.30
2023-04-16T12:37:11.957Z,13.30
2023-04-16T12:39:39.224Z,15.48
2023-04-16T12:42:10.466Z,17.00
2023-04-16T12:44:37.519Z,14.45
2023-04-16T12:47:08.017Z,15.40
2023-04-16T12:49:35.469Z,14.15
2023-04-16T12:52:01.999Z,15.27
2023-04-16T12:54:31.621Z,13.68
2023-04-16T12:57:00.239Z,12.38
2023-04-16T13:02:11.230Z,14.50
2023-04-16T13:04:38.777Z,13.07
2023-04-16T13:07:11.075Z,12.18
2023-04-16T13:09:39.821Z,11.60
2023-04-16T13:14:48.193Z,11.60
2023-04-16T13:20:36.581Z,12.73
2023-04-16T13:23:05.170Z,12.80
2023-04-16T13:25:31.263Z,15.55
2023-04-16T13:27:57.351Z,15.00
2023-04-16T13:36:06.051Z,12.40
2023-04-16T13:38:33.204Z,12.27
2023-04-16T13:41:01.555Z,15.73
2023-04-16T13:46:11.357Z,13.40
2023-04-16T13:48:43.025Z,13.73
2023-04-16T13:51:10.556Z,17.42
2023-04-16T13:53:44.889Z,13.82
2023-04-16T13:56:12.769Z,15.18
2023-04-16T13:58:39.088Z,13.43
2023-04-16T14:01:06.092Z,16.10
2023-04-16T14:03:37.770Z,16.52
2023-04-16T14:06:04.372Z,13.73
2023-04-16T14:08:31.421Z,12.05
2023-04-16T14:10:57.693Z,14.65
2023-04-16T14:13:24.347Z,11.60
2023-04-16T14:16:37.748Z,13.18
2023-04-16T14:19:04.870Z,11.55
2023-04-16T14:21:30.985Z,11.57
2023-04-16T14:23:57.201Z,13.85
2023-04-16T14:29:07.929Z,13.63
2023-04-16T14:31:38.411Z,13.63
2023-04-16T14:34:06.757Z,12.82
2023-04-16T14:36:33.336Z,12.25
2023-04-16T14:39:05.825Z,10.55
2023-04-16T14:41:32.023Z,10.85
2023-04-16T14:43:59.050Z,11.07
2023-04-16T14:46:34.663Z,13.18
2023-04-16T14:49:02.769Z,11.95
2023-04-16T14:51:33.520Z,11.07
2023-04-16T14:56:27.694Z,12.15
2023-04-16T14:58:59.650Z,10.25
2023-04-16T15:04:10.488Z,10.68
2023-04-16T15:06:46.607Z,10.45
2023-04-16T15:09:17.554Z,8.30
2023-04-16T15:14:21.800Z,8.65
2023-04-16T15:20:12.690Z,7.35
2023-04-16T15:25:28.025Z,9.43
2023-04-16T15:27:54.811Z,8.15
2023-04-16T15:30:24.701Z,6.57
2023-04-16T15:32:52.011Z,8.15
2023-04-16T15:35:21.205Z,7.47
2023-04-16T15:37:48.803Z,7.22
2023-04-16T15:40:19.087Z,6.63
2023-04-16T15:42:45.801Z,7.78
2023-04-16T15:45:17.127Z,7.47
2023-04-16T15:47:47.653Z,9.00
2023-04-16T15:50:15.589Z,5.93
2023-04-16T15:52:42.710Z,7.32
2023-04-16T15:55:13.507Z,10.57
2023-04-16T15:57:40.290Z,7.13
2023-04-16T16:00:14.183Z,6.80
2023-04-16T16:02:42.309Z,9.82
2023-04-16T16:05:09.896Z,5.30
2023-04-16T16:07:44.750Z,7.05
2023-04-16T16:10:12.562Z,10.90
2023-04-16T16:12:39.681Z,7.32
2023-04-16T16:15:06.525Z,6.53
2023-04-16T16:17:33.960Z,5.68
2023-04-16T16:20:02.009Z,9.60
2023-04-16T16:22:28.474Z,4.57
2023-04-16T16:24:57.093Z,9.55
2023-04-16T16:27:23.604Z,6.57
2023-04-16T16:29:50.984Z,5.95
2023-04-16T16:37:26.363Z,5.93
2023-04-16T16:39:54.204Z,9.15
2023-04-16T16:42:21.604Z,9.13
2023-04-16T16:44:49.074Z,5.63
2023-04-16T16:47:15.915Z,8.63
2023-04-16T16:49:42.699Z,6.68
2023-04-16T16:52:09.313Z,5.25
2023-04-16T16:54:36.205Z,7.72
2023-04-16T18:42:35.792Z,11.73
2023-04-16T18:45:06.405Z,10.68
2023-04-16T18:47:34.441Z,11.10
2023-04-16T18:50:04.765Z,13.35
2023-04-16T18:52:32.062Z,9.32
2023-04-16T19:56:18.493Z,12.73
2023-04-16T20:06:59.670Z,10.35
2023-04-16T20:09:26.079Z,11.23
2023-04-16T20:20:39.928Z,7.25
2023-04-16T20:23:07.364Z,11.18
2023-04-16T20:25:36.074Z,10.75
2023-04-16T20:28:03.293Z,8.50
2023-04-16T20:33:10.993Z,11.65
2023-04-16T20:38:24.057Z,7.82
2023-04-16T20:41:00.446Z,8.55
2023-04-16T20:43:30.035Z,9.40
2023-04-16T20:46:14.535Z,11.63
2023-04-16T20:48:43.248Z,9.10
2023-04-16T20:51:12.423Z,10.93
2023-04-16T20:53:38.671Z,7.93
2023-04-16T20:58:47.106Z,10.20
2023-04-16T21:01:14.183Z,8.73
2023-04-16T21:03:40.339Z,11.10
2023-04-16T21:06:06.964Z,10.68
2023-04-16T21:08:33.405Z,7.82
2023-04-16T21:10:59.626Z,8.00
2023-04-16T21:13:28.229Z,8.05
2023-04-16T21:16:09.298Z,8.82
2023-04-16T21:18:36.730Z,8.30
2023-04-16T21:21:05.068Z,9.73
2023-04-16T21:23:31.512Z,6.63
2023-04-16T21:25:57.763Z,8.45
2023-04-16T21:28:27.040Z,8.52
2023-04-16T21:30:54.120Z,8.82
2023-04-16T21:33:20.412Z,8.05
2023-04-16T21:35:50.940Z,6.72
2023-04-16T21:38:17.925Z,6.47
2023-04-16T21:40:47.904Z,8.18
2023-04-16T21:43:16.352Z,15.52
2023-04-16T21:45:45.515Z,7.18
2023-04-16T21:48:16.436Z,8.68
2023-04-16T21:50:42.331Z,8.65
2023-04-16T21:53:09.611Z,11.25
2023-04-16T21:55:35.846Z,9.27
2023-04-16T21:58:04.906Z,7.68
2023-04-16T22:00:31.142Z,8.52
2023-04-16T22:02:59.527Z,11.23
2023-04-16T22:05:26.613Z,10.07
2023-04-16T22:07:52.538Z,8.55
2023-04-16T22:10:18.339Z,7.80
2023-04-16T22:12:45.185Z,11.70
2023-04-16T22:15:11.409Z,9.43
2023-04-16T22:17:38.005Z,12.43
2023-04-16T22:20:11.606Z,10.35
2023-04-16T22:22:37.662Z,8.05
2023-04-16T22:25:03.689Z,10.98
2023-04-16T22:27:29.425Z,8.60
2023-04-16T22:29:55.250Z,10.52
2023-04-16T22:32:21.337Z,10.35
2023-04-16T22:34:47.206Z,8.20
2023-04-16T22:37:12.947Z,9.63
2023-04-16T22:39:38.663Z,10.18
2023-04-16T22:42:04.470Z,9.05
2023-04-16T22:44:30.649Z,11.73
2023-04-16T22:46:56.451Z,12.65
2023-04-16T22:49:22.291Z,9.27
2023-04-16T22:51:48.140Z,9.98
2023-04-16T22:54:14.090Z,12.00
2023-04-16T22:56:40.209Z,10.93
2023-04-16T22:59:06.417Z,11.82
2023-04-16T23:01:32.985Z,9.38
2023-04-16T23:03:58.812Z,13.23
2023-04-16T23:06:26.504Z,10.65
2023-04-16T23:08:52.579Z,7.47
2023-04-16T23:11:18.382Z,10.45
2023-04-16T23:13:44.119Z,9.27
2023-04-16T23:16:10.107Z,15.60
2023-04-16T23:18:36.243Z,9.57
2023-04-16T23:21:02.002Z,12.25
2023-04-16T23:23:27.751Z,10.07
2023-04-16T23:25:53.756Z,8.73
2023-04-16T23:28:19.787Z,10.52
2023-04-16T23:30:45.512Z,8.30
2023-04-16T23:33:11.221Z,13.68
2023-04-16T23:35:36.944Z,9.60
2023-04-16T23:38:02.769Z,12.38
2023-04-16T23:40:28.814Z,12.30
2023-04-16T23:42:54.700Z,11.98
2023-04-16T23:45:20.446Z,10.43
2023-04-16T23:47:46.341Z,12.43
2023-04-16T23:50:12.284Z,10.25
2023-04-16T23:52:38.101Z,10.20
2023-04-16T23:55:04.115Z,10.27
2023-04-16T23:57:29.979Z,17.27
2023-04-16T23:59:55.691Z,12.70
